sensor_id;sensor_type;location;lat;lon;timestamp;P1;durP1;ratioP1;P2;durP2;ratioP2
41141;SDS011;63666;52.284;20.890;2023-02-24T00:02:26;13.20;;;11.00;;
41141;SDS011;63666;52.284;20.890;2023-02-24T00:05:05;13.00;;;11.30;;
41141;SDS011;63666;52.284;20.890;2023-02-24T00:07:39;13.40;;;11.00;;
41141;SDS011;63666;52.284;20.890;2023-02-24T00:10:11;15.10;;;11.20;;
41141;SDS011;63666;52.284;20.890;2023-02-24T00:12:49;14.50;;;11.90;;
41141;SDS011;63666;52.284;20.890;2023-02-24T00:15:27;14.70;;;12.10;;
41141;SDS011;63666;52.284;20.890;2023-02-24T00:17:58;14.80;;;11.80;;
41141;SDS011;63666;52.284;20.890;2023-02-24T00:20:36;14.50;;;12.20;;
41141;SDS011;63666;52.284;20.890;2023-02-24T00:23:11;15.30;;;11.90;;
41141;SDS011;63666;52.284;20.890;2023-02-24T00:25:46;14.60;;;12.00;;
41141;SDS011;63666;52.284;20.890;2023-02-24T00:28:20;15.50;;;12.00;;
41141;SDS011;63666;52.284;20.890;2023-02-24T00:30:53;14.10;;;12.00;;
41141;SDS011;63666;52.284;20.890;2023-02-24T00:33:35;16.30;;;13.00;;
41141;SDS011;63666;52.284;20.890;2023-02-24T00:36:13;14.80;;;12.40;;
41141;SDS011;63666;52.284;20.890;2023-02-24T00:38:44;14.80;;;12.50;;
41141;SDS011;63666;52.284;20.890;2023-02-24T00:41:17;15.50;;;12.40;;
41141;SDS011;63666;52.284;20.890;2023-02-24T00:43:52;16.40;;;12.70;;
41141;SDS011;63666;52.284;20.890;2023-02-24T00:46:26;14.80;;;12.60;;
41141;SDS011;63666;52.284;20.890;2023-02-24T00:48:58;16.30;;;12.40;;
41141;SDS011;63666;52.284;20.890;2023-02-24T00:51:36;14.50;;;12.40;;
41141;SDS011;63666;52.284;20.890;2023-02-24T00:54:12;15.90;;;12.60;;
41141;SDS011;63666;52.284;20.890;2023-02-24T00:56:44;15.70;;;12.70;;
41141;SDS011;63666;52.284;20.890;2023-02-24T00:59:20;15.40;;;12.50;;
41141;SDS011;63666;52.284;20.890;2023-02-24T01:01:52;17.40;;;12.80;;
41141;SDS011;63666;52.284;20.890;2023-02-24T01:04:30;15.40;;;13.10;;
41141;SDS011;63666;52.284;20.890;2023-02-24T01:07:06;16.40;;;13.40;;
41141;SDS011;63666;52.284;20.890;2023-02-24T01:09:39;16.90;;;12.90;;
41141;SDS011;63666;52.284;20.890;2023-02-24T01:12:18;16.30;;;13.10;;
41141;SDS011;63666;52.284;20.890;2023-02-24T01:15:09;16.60;;;13.10;;
41141;SDS011;63666;52.284;20.890;2023-02-24T01:17:43;17.00;;;13.10;;
41141;SDS011;63666;52.284;20.890;2023-02-24T01:20:16;15.50;;;12.60;;
41141;SDS011;63666;52.284;20.890;2023-02-24T01:22:51;15.40;;;12.30;;
41141;SDS011;63666;52.284;20.890;2023-02-24T01:25:30;14.50;;;12.60;;
41141;SDS011;63666;52.284;20.890;2023-02-24T01:28:03;16.10;;;12.60;;
41141;SDS011;63666;52.284;20.890;2023-02-24T01:30:33;15.10;;;12.00;;
41141;SDS011;63666;52.284;20.890;2023-02-24T01:33:15;15.10;;;12.70;;
41141;SDS011;63666;52.284;20.890;2023-02-24T01:35:50;15.40;;;12.30;;
41141;SDS011;63666;52.284;20.890;2023-02-24T01:38:24;15.20;;;12.50;;
41141;SDS011;63666;52.284;20.890;2023-02-24T01:41:00;15.20;;;12.30;;
41141;SDS011;63666;52.284;20.890;2023-02-24T01:43:54;14.00;;;11.90;;
41141;SDS011;63666;52.284;20.890;2023-02-24T01:46:29;15.20;;;12.60;;
41141;SDS011;63666;52.284;20.890;2023-02-24T01:49:03;14.80;;;12.50;;
41141;SDS011;63666;52.284;20.890;2023-02-24T01:51:40;16.50;;;12.90;;
41141;SDS011;63666;52.284;20.890;2023-02-24T01:54:18;14.70;;;12.70;;
41141;SDS011;63666;52.284;20.890;2023-02-24T01:56:55;15.70;;;12.60;;
41141;SDS011;63666;52.284;20.890;2023-02-24T01:59:32;15.10;;;13.10;;
41141;SDS011;63666;52.284;20.890;2023-02-24T02:02:07;15.10;;;12.30;;
41141;SDS011;63666;52.284;20.890;2023-02-24T02:04:45;15.00;;;12.40;;
41141;SDS011;63666;52.284;20.890;2023-02-24T02:07:22;14.90;;;12.70;;
41141;SDS011;63666;52.284;20.890;2023-02-24T02:09:56;14.60;;;12.70;;
41141;SDS011;63666;52.284;20.890;2023-02-24T02:12:32;15.00;;;12.60;;
41141;SDS011;63666;52.284;20.890;2023-02-24T02:15:06;14.40;;;12.80;;
41141;SDS011;63666;52.284;20.890;2023-02-24T02:17:42;14.30;;;12.50;;
41141;SDS011;63666;52.284;20.890;2023-02-24T02:23:52;15.00;;;12.40;;
41141;SDS011;63666;52.284;20.890;2023-02-24T02:26:47;14.30;;;12.50;;
41141;SDS011;63666;52.284;20.890;2023-02-24T02:29:53;15.30;;;12.40;;
41141;SDS011;63666;52.284;20.890;2023-02-24T02:35:58;14.10;;;12.60;;
41141;SDS011;63666;52.284;20.890;2023-02-24T02:38:41;15.00;;;12.40;;
41141;SDS011;63666;52.284;20.890;2023-02-24T02:41:24;13.70;;;12.10;;
41141;SDS011;63666;52.284;20.890;2023-02-24T02:44:03;14.60;;;12.30;;
41141;SDS011;63666;52.284;20.890;2023-02-24T02:46:40;14.60;;;12.60;;
41141;SDS011;63666;52.284;20.890;2023-02-24T02:49:16;14.30;;;12.60;;
41141;SDS011;63666;52.284;20.890;2023-02-24T02:51:53;13.90;;;12.40;;
41141;SDS011;63666;52.284;20.890;2023-02-24T02:54:28;14.60;;;12.50;;
41141;SDS011;63666;52.284;20.890;2023-02-24T02:57:05;14.40;;;12.90;;
41141;SDS011;63666;52.284;20.890;2023-02-24T02:59:44;14.10;;;12.60;;
41141;SDS011;63666;52.284;20.890;2023-02-24T03:02:25;14.40;;;12.90;;
41141;SDS011;63666;52.284;20.890;2023-02-24T03:05:01;14.70;;;13.20;;
41141;SDS011;63666;52.284;20.890;2023-02-24T03:07:42;14.50;;;12.60;;
41141;SDS011;63666;52.284;20.890;2023-02-24T03:10:24;14.00;;;12.30;;
41141;SDS011;63666;52.284;20.890;2023-02-24T03:13:00;13.80;;;12.30;;
41141;SDS011;63666;52.284;20.890;2023-02-24T03:15:33;13.60;;;11.90;;
41141;SDS011;63666;52.284;20.890;2023-02-24T03:18:12;14.20;;;12.50;;
41141;SDS011;63666;52.284;20.890;2023-02-24T03:20:50;13.80;;;12.00;;
41141;SDS011;63666;52.284;20.890;2023-02-24T03:23:29;13.90;;;12.40;;
41141;SDS011;63666;52.284;20.890;2023-02-24T03:26:10;14.50;;;12.80;;
41141;SDS011;63666;52.284;20.890;2023-02-24T03:28:54;14.40;;;12.90;;
41141;SDS011;63666;52.284;20.890;2023-02-24T03:31:38;14.40;;;12.40;;
41141;SDS011;63666;52.284;20.890;2023-02-24T03:34:19;14.60;;;12.90;;
41141;SDS011;63666;52.284;20.890;2023-02-24T03:36:56;14.10;;;12.50;;
41141;SDS011;63666;52.284;20.890;2023-02-24T03:39:31;14.60;;;12.50;;
41141;SDS011;63666;52.284;20.890;2023-02-24T03:42:05;14.00;;;12.50;;
41141;SDS011;63666;52.284;20.890;2023-02-24T03:44:38;14.10;;;12.50;;
41141;SDS011;63666;52.284;20.890;2023-02-24T03:47:15;13.90;;;12.40;;
41141;SDS011;63666;52.284;20.890;2023-02-24T03:49:50;14.70;;;12.50;;
41141;SDS011;63666;52.284;20.890;2023-02-24T03:52:32;14.50;;;12.60;;
41141;SDS011;63666;52.284;20.890;2023-02-24T03:55:19;14.80;;;13.00;;
41141;SDS011;63666;52.284;20.890;2023-02-24T03:58:07;15.00;;;12.40;;
41141;SDS011;63666;52.284;20.890;2023-02-24T04:00:51;15.30;;;13.00;;
41141;SDS011;63666;52.284;20.890;2023-02-24T04:03:30;13.90;;;12.40;;
41141;SDS011;63666;52.284;20.890;2023-02-24T04:06:10;14.40;;;12.90;;
41141;SDS011;63666;52.284;20.890;2023-02-24T04:08:48;14.10;;;12.60;;
41141;SDS011;63666;52.284;20.890;2023-02-24T04:11:31;14.20;;;12.70;;
41141;SDS011;63666;52.284;20.890;2023-02-24T04:14:09;15.10;;;12.60;;
41141;SDS011;63666;52.284;20.890;2023-02-24T04:16:47;14.60;;;13.00;;
41141;SDS011;63666;52.284;20.890;2023-02-24T04:19:31;14.00;;;12.50;;
41141;SDS011;63666;52.284;20.890;2023-02-24T04:22:12;14.50;;;13.00;;
41141;SDS011;63666;52.284;20.890;2023-02-24T04:24:48;14.60;;;13.10;;
41141;SDS011;63666;52.284;20.890;2023-02-24T04:27:20;14.20;;;12.70;;
41141;SDS011;63666;52.284;20.890;2023-02-24T04:29:59;14.50;;;13.00;;
41141;SDS011;63666;52.284;20.890;2023-02-24T04:32:32;14.90;;;13.30;;
41141;SDS011;63666;52.284;20.890;2023-02-24T04:35:05;14.40;;;12.90;;
41141;SDS011;63666;52.284;20.890;2023-02-24T04:37:40;14.60;;;13.10;;
41141;SDS011;63666;52.284;20.890;2023-02-24T04:40:17;14.70;;;13.10;;
41141;SDS011;63666;52.284;20.890;2023-02-24T04:42:51;15.00;;;13.40;;
41141;SDS011;63666;52.284;20.890;2023-02-24T04:45:32;15.40;;;13.10;;
41141;SDS011;63666;52.284;20.890;2023-02-24T04:48:09;15.00;;;13.40;;
41141;SDS011;63666;52.284;20.890;2023-02-24T04:50:43;14.90;;;13.30;;
41141;SDS011;63666;52.284;20.890;2023-02-24T04:53:15;15.10;;;13.10;;
41141;SDS011;63666;52.284;20.890;2023-02-24T04:55:51;15.20;;;13.60;;
41141;SDS011;63666;52.284;20.890;2023-02-24T04:58:25;15.20;;;13.40;;
41141;SDS011;63666;52.284;20.890;2023-02-24T05:00:57;14.90;;;12.80;;
41141;SDS011;63666;52.284;20.890;2023-02-24T05:03:27;15.20;;;12.80;;
41141;SDS011;63666;52.284;20.890;2023-02-24T05:06:06;14.60;;;13.00;;
41141;SDS011;63666;52.284;20.890;2023-02-24T05:08:44;14.80;;;12.70;;
41141;SDS011;63666;52.284;20.890;2023-02-24T05:11:19;14.30;;;12.60;;
41141;SDS011;63666;52.284;20.890;2023-02-24T05:13:55;14.50;;;13.00;;
41141;SDS011;63666;52.284;20.890;2023-02-24T05:16:30;14.80;;;13.10;;
41141;SDS011;63666;52.284;20.890;2023-02-24T05:19:05;14.70;;;12.60;;
41141;SDS011;63666;52.284;20.890;2023-02-24T05:21:56;14.40;;;12.90;;
41141;SDS011;63666;52.284;20.890;2023-02-24T05:24:30;14.30;;;12.70;;
41141;SDS011;63666;52.284;20.890;2023-02-24T05:27:03;14.70;;;12.90;;
41141;SDS011;63666;52.284;20.890;2023-02-24T05:29:37;14.80;;;12.60;;
41141;SDS011;63666;52.284;20.890;2023-02-24T05:32:10;14.30;;;12.40;;
41141;SDS011;63666;52.284;20.890;2023-02-24T05:34:46;14.00;;;12.50;;
41141;SDS011;63666;52.284;20.890;2023-02-24T05:37:19;14.70;;;12.90;;
41141;SDS011;63666;52.284;20.890;2023-02-24T05:39:49;15.00;;;13.20;;
41141;SDS011;63666;52.284;20.890;2023-02-24T05:42:24;13.90;;;12.40;;
41141;SDS011;63666;52.284;20.890;2023-02-24T05:45:02;14.30;;;12.60;;
41141;SDS011;63666;52.284;20.890;2023-02-24T05:47:37;14.50;;;12.80;;
41141;SDS011;63666;52.284;20.890;2023-02-24T05:50:10;14.20;;;12.70;;
41141;SDS011;63666;52.284;20.890;2023-02-24T05:52:46;13.60;;;11.80;;
41141;SDS011;63666;52.284;20.890;2023-02-24T05:55:19;14.60;;;12.40;;
41141;SDS011;63666;52.284;20.890;2023-02-24T05:57:53;14.50;;;12.00;;
41141;SDS011;63666;52.284;20.890;2023-02-24T06:00:27;14.30;;;12.60;;
41141;SDS011;63666;52.284;20.890;2023-02-24T06:02:57;14.40;;;12.50;;
41141;SDS011;63666;52.284;20.890;2023-02-24T06:05:41;13.80;;;12.10;;
41141;SDS011;63666;52.284;20.890;2023-02-24T06:08:22;13.40;;;11.90;;
41141;SDS011;63666;52.284;20.890;2023-02-24T06:10:57;13.60;;;11.80;;
41141;SDS011;63666;52.284;20.890;2023-02-24T06:13:32;14.50;;;12.90;;
41141;SDS011;63666;52.284;20.890;2023-02-24T06:16:13;15.80;;;13.40;;
41141;SDS011;63666;52.284;20.890;2023-02-24T06:18:48;13.70;;;12.10;;
41141;SDS011;63666;52.284;20.890;2023-02-24T06:21:23;15.50;;;12.90;;
41141;SDS011;63666;52.284;20.890;2023-02-24T06:24:01;14.10;;;12.20;;
41141;SDS011;63666;52.284;20.890;2023-02-24T06:26:33;14.30;;;12.30;;
41141;SDS011;63666;52.284;20.890;2023-02-24T06:29:15;13.90;;;12.40;;
41141;SDS011;63666;52.284;20.890;2023-02-24T06:31:51;14.80;;;12.50;;
41141;SDS011;63666;52.284;20.890;2023-02-24T06:34:25;13.90;;;12.40;;
41141;SDS011;63666;52.284;20.890;2023-02-24T06:37:08;15.50;;;12.60;;
41141;SDS011;63666;52.284;20.890;2023-02-24T06:39:46;15.00;;;12.10;;
41141;SDS011;63666;52.284;20.890;2023-02-24T06:42:27;14.00;;;12.50;;
41141;SDS011;63666;52.284;20.890;2023-02-24T06:45:04;14.60;;;12.70;;
41141;SDS011;63666;52.284;20.890;2023-02-24T06:47:38;14.20;;;12.70;;
41141;SDS011;63666;52.284;20.890;2023-02-24T06:50:13;14.10;;;12.40;;
41141;SDS011;63666;52.284;20.890;2023-02-24T06:52:43;14.40;;;12.50;;
41141;SDS011;63666;52.284;20.890;2023-02-24T06:55:17;13.30;;;11.90;;
41141;SDS011;63666;52.284;20.890;2023-02-24T06:57:57;16.00;;;12.60;;
41141;SDS011;63666;52.284;20.890;2023-02-24T07:00:34;15.40;;;12.70;;
41141;SDS011;63666;52.284;20.890;2023-02-24T07:03:08;14.20;;;12.70;;
41141;SDS011;63666;52.284;20.890;2023-02-24T07:05:46;14.00;;;12.30;;
41141;SDS011;63666;52.284;20.890;2023-02-24T07:08:20;14.20;;;12.40;;
41141;SDS011;63666;52.284;20.890;2023-02-24T07:10:55;14.10;;;12.60;;
41141;SDS011;63666;52.284;20.890;2023-02-24T07:13:27;14.30;;;12.20;;
41141;SDS011;63666;52.284;20.890;2023-02-24T07:16:04;15.00;;;12.90;;
41141;SDS011;63666;52.284;20.890;2023-02-24T07:18:36;14.50;;;12.80;;
41141;SDS011;63666;52.284;20.890;2023-02-24T07:21:11;14.40;;;12.90;;
41141;SDS011;63666;52.284;20.890;2023-02-24T07:23:49;14.30;;;12.20;;
41141;SDS011;63666;52.284;20.890;2023-02-24T07:26:29;13.90;;;12.10;;
41141;SDS011;63666;52.284;20.890;2023-02-24T07:29:02;13.80;;;12.30;;
41141;SDS011;63666;52.284;20.890;2023-02-24T07:31:43;13.90;;;12.20;;
41141;SDS011;63666;52.284;20.890;2023-02-24T07:34:19;13.30;;;11.90;;
41141;SDS011;63666;52.284;20.890;2023-02-24T07:36:55;13.90;;;12.40;;
41141;SDS011;63666;52.284;20.890;2023-02-24T07:39:30;14.10;;;12.60;;
41141;SDS011;63666;52.284;20.890;2023-02-24T07:42:11;13.20;;;11.90;;
41141;SDS011;63666;52.284;20.890;2023-02-24T07:44:42;14.10;;;12.40;;
41141;SDS011;63666;52.284;20.890;2023-02-24T07:47:17;14.00;;;12.50;;
41141;SDS011;63666;52.284;20.890;2023-02-24T07:49:58;13.10;;;11.70;;
41141;SDS011;63666;52.284;20.890;2023-02-24T07:52:33;13.60;;;12.00;;
41141;SDS011;63666;52.284;20.890;2023-02-24T07:55:07;13.70;;;12.20;;
41141;SDS011;63666;52.284;20.890;2023-02-24T07:57:38;12.60;;;11.30;;
41141;SDS011;63666;52.284;20.890;2023-02-24T08:00:12;13.20;;;11.70;;
41141;SDS011;63666;52.284;20.890;2023-02-24T08:02:57;13.40;;;11.90;;
41141;SDS011;63666;52.284;20.890;2023-02-24T08:05:30;13.50;;;12.10;;
41141;SDS011;63666;52.284;20.890;2023-02-24T08:08:04;13.10;;;11.80;;
41141;SDS011;63666;52.284;20.890;2023-02-24T08:10:49;13.30;;;11.90;;
41141;SDS011;63666;52.284;20.890;2023-02-24T08:13:31;12.80;;;11.30;;
41141;SDS011;63666;52.284;20.890;2023-02-24T08:16:06;13.10;;;11.70;;
41141;SDS011;63666;52.284;20.890;2023-02-24T08:18:39;13.00;;;11.50;;
41141;SDS011;63666;52.284;20.890;2023-02-24T08:21:17;13.70;;;11.50;;
41141;SDS011;63666;52.284;20.890;2023-02-24T08:23:50;12.50;;;11.00;;
41141;SDS011;63666;52.284;20.890;2023-02-24T08:26:24;12.70;;;11.00;;
41141;SDS011;63666;52.284;20.890;2023-02-24T08:28:58;13.10;;;11.20;;
41141;SDS011;63666;52.284;20.890;2023-02-24T08:31:37;12.20;;;10.90;;
41141;SDS011;63666;52.284;20.890;2023-02-24T08:34:13;12.10;;;10.80;;
41141;SDS011;63666;52.284;20.890;2023-02-24T08:36:43;12.50;;;11.10;;
41141;SDS011;63666;52.284;20.890;2023-02-24T08:39:15;12.40;;;11.10;;
41141;SDS011;63666;52.284;20.890;2023-02-24T08:41:55;12.80;;;11.20;;
41141;SDS011;63666;52.284;20.890;2023-02-24T08:44:25;12.70;;;11.10;;
41141;SDS011;63666;52.284;20.890;2023-02-24T08:47:05;13.30;;;11.30;;
41141;SDS011;63666;52.284;20.890;2023-02-24T08:49:37;13.40;;;11.40;;
41141;SDS011;63666;52.284;20.890;2023-02-24T08:52:10;13.90;;;11.10;;
41141;SDS011;63666;52.284;20.890;2023-02-24T08:54:50;12.10;;;10.80;;
41141;SDS011;63666;52.284;20.890;2023-02-24T08:57:21;12.80;;;11.30;;
41141;SDS011;63666;52.284;20.890;2023-02-24T09:02:29;12.50;;;10.90;;
41141;SDS011;63666;52.284;20.890;2023-02-24T09:05:07;12.80;;;11.40;;
41141;SDS011;63666;52.284;20.890;2023-02-24T09:07:42;13.20;;;11.00;;
41141;SDS011;63666;52.284;20.890;2023-02-24T09:10:15;11.90;;;10.60;;
41141;SDS011;63666;52.284;20.890;2023-02-24T09:12:49;12.40;;;10.80;;
41141;SDS011;63666;52.284;20.890;2023-02-24T09:15:27;12.40;;;11.10;;
41141;SDS011;63666;52.284;20.890;2023-02-24T09:18:08;11.80;;;10.60;;
41141;SDS011;63666;52.284;20.890;2023-02-24T09:20:42;12.10;;;10.80;;
41141;SDS011;63666;52.284;20.890;2023-02-24T09:23:26;12.40;;;11.10;;
41141;SDS011;63666;52.284;20.890;2023-02-24T09:25:59;12.70;;;11.40;;
41141;SDS011;63666;52.284;20.890;2023-02-24T09:28:40;11.70;;;10.50;;
41141;SDS011;63666;52.284;20.890;2023-02-24T09:31:16;11.80;;;10.40;;
41141;SDS011;63666;52.284;20.890;2023-02-24T09:33:56;11.80;;;10.50;;
41141;SDS011;63666;52.284;20.890;2023-02-24T09:36:33;11.50;;;10.40;;
41141;SDS011;63666;52.284;20.890;2023-02-24T09:39:12;11.90;;;10.70;;
41141;SDS011;63666;52.284;20.890;2023-02-24T09:41:46;11.70;;;10.10;;
41141;SDS011;63666;52.284;20.890;2023-02-24T09:44:30;11.30;;;10.10;;
41141;SDS011;63666;52.284;20.890;2023-02-24T09:47:10;12.60;;;10.10;;
41141;SDS011;63666;52.284;20.890;2023-02-24T09:49:52;11.70;;;10.50;;
41141;SDS011;63666;52.284;20.890;2023-02-24T09:52:31;12.30;;;10.20;;
41141;SDS011;63666;52.284;20.890;2023-02-24T09:55:16;11.70;;;10.30;;
41141;SDS011;63666;52.284;20.890;2023-02-24T09:58:11;11.80;;;9.60;;
41141;SDS011;63666;52.284;20.890;2023-02-24T10:01:38;11.00;;;9.70;;
41141;SDS011;63666;52.284;20.890;2023-02-24T10:04:33;10.50;;;9.30;;
41141;SDS011;63666;52.284;20.890;2023-02-24T10:07:19;10.70;;;9.30;;
41141;SDS011;63666;52.284;20.890;2023-02-24T10:09:59;10.90;;;9.40;;
41141;SDS011;63666;52.284;20.890;2023-02-24T10:12:52;10.70;;;9.20;;
41141;SDS011;63666;52.284;20.890;2023-02-24T10:15:29;10.70;;;9.60;;
41141;SDS011;63666;52.284;20.890;2023-02-24T10:18:32;11.10;;;9.70;;
41141;SDS011;63666;52.284;20.890;2023-02-24T10:21:21;10.30;;;9.20;;
41141;SDS011;63666;52.284;20.890;2023-02-24T10:24:10;10.10;;;9.00;;
41141;SDS011;63666;52.284;20.890;2023-02-24T10:26:49;10.10;;;9.00;;
41141;SDS011;63666;52.284;20.890;2023-02-24T10:29:48;9.90;;;8.80;;
41141;SDS011;63666;52.284;20.890;2023-02-24T10:32:32;10.50;;;8.60;;
41141;SDS011;63666;52.284;20.890;2023-02-24T10:35:14;9.30;;;8.10;;
41141;SDS011;63666;52.284;20.890;2023-02-24T10:37:45;10.00;;;8.60;;
41141;SDS011;63666;52.284;20.890;2023-02-24T10:40:18;10.00;;;8.70;;
41141;SDS011;63666;52.284;20.890;2023-02-24T10:43:06;10.10;;;8.70;;
41141;SDS011;63666;52.284;20.890;2023-02-24T10:45:39;9.50;;;8.10;;
41141;SDS011;63666;52.284;20.890;2023-02-24T10:48:18;9.80;;;8.00;;
41141;SDS011;63666;52.284;20.890;2023-02-24T10:51:15;8.90;;;7.80;;
41141;SDS011;63666;52.284;20.890;2023-02-24T10:54:01;9.40;;;7.70;;
41141;SDS011;63666;52.284;20.890;2023-02-24T10:56:52;8.50;;;7.60;;
41141;SDS011;63666;52.284;20.890;2023-02-24T10:59:45;8.80;;;7.30;;
41141;SDS011;63666;52.284;20.890;2023-02-24T11:02:52;8.80;;;7.50;;
41141;SDS011;63666;52.284;20.890;2023-02-24T11:05:37;8.80;;;7.30;;
41141;SDS011;63666;52.284;20.890;2023-02-24T11:08:28;8.60;;;7.30;;
41141;SDS011;63666;52.284;20.890;2023-02-24T11:11:14;8.20;;;7.00;;
41141;SDS011;63666;52.284;20.890;2023-02-24T11:13:55;8.60;;;6.90;;
41141;SDS011;63666;52.284;20.890;2023-02-24T11:16:50;8.30;;;7.20;;
41141;SDS011;63666;52.284;20.890;2023-02-24T11:19:43;8.20;;;6.90;;
41141;SDS011;63666;52.284;20.890;2023-02-24T11:22:21;7.80;;;6.60;;
41141;SDS011;63666;52.284;20.890;2023-02-24T11:24:56;8.10;;;6.90;;
41141;SDS011;63666;52.284;20.890;2023-02-24T11:27:29;8.90;;;6.90;;
41141;SDS011;63666;52.284;20.890;2023-02-24T11:30:25;7.50;;;6.40;;
41141;SDS011;63666;52.284;20.890;2023-02-24T11:33:18;8.30;;;6.40;;
41141;SDS011;63666;52.284;20.890;2023-02-24T11:36:03;8.10;;;6.90;;
41141;SDS011;63666;52.284;20.890;2023-02-24T11:38:45;8.40;;;6.80;;
41141;SDS011;63666;52.284;20.890;2023-02-24T11:41:40;7.90;;;6.40;;
41141;SDS011;63666;52.284;20.890;2023-02-24T11:44:18;8.10;;;6.80;;
41141;SDS011;63666;52.284;20.890;2023-02-24T11:46:53;8.10;;;6.60;;
41141;SDS011;63666;52.284;20.890;2023-02-24T11:49:28;7.70;;;6.30;;
41141;SDS011;63666;52.284;20.890;2023-02-24T11:52:02;8.40;;;6.30;;
41141;SDS011;63666;52.284;20.890;2023-02-24T11:54:39;7.60;;;6.20;;
41141;SDS011;63666;52.284;20.890;2023-02-24T11:57:18;7.60;;;6.20;;
41141;SDS011;63666;52.284;20.890;2023-02-24T12:00:00;7.80;;;6.10;;
41141;SDS011;63666;52.284;20.890;2023-02-24T12:02:46;7.40;;;5.80;;
41141;SDS011;63666;52.284;20.890;2023-02-24T12:05:22;7.30;;;5.60;;
41141;SDS011;63666;52.284;20.890;2023-02-24T12:07:58;7.40;;;5.90;;
41141;SDS011;63666;52.284;20.890;2023-02-24T12:10:42;7.80;;;5.70;;
41141;SDS011;63666;52.284;20.890;2023-02-24T12:13:18;7.80;;;5.80;;
41141;SDS011;63666;52.284;20.890;2023-02-24T12:16:02;7.70;;;5.70;;
41141;SDS011;63666;52.284;20.890;2023-02-24T12:18:36;7.80;;;5.80;;
41141;SDS011;63666;52.284;20.890;2023-02-24T12:21:19;8.30;;;5.80;;
41141;SDS011;63666;52.284;20.890;2023-02-24T12:24:01;7.60;;;5.50;;
41141;SDS011;63666;52.284;20.890;2023-02-24T12:26:44;7.10;;;5.90;;
41141;SDS011;63666;52.284;20.890;2023-02-24T12:29:38;7.80;;;5.50;;
41141;SDS011;63666;52.284;20.890;2023-02-24T12:32:21;7.30;;;5.40;;
41141;SDS011;63666;52.284;20.890;2023-02-24T12:35:07;7.80;;;5.60;;
41141;SDS011;63666;52.284;20.890;2023-02-24T12:37:57;7.20;;;5.30;;
41141;SDS011;63666;52.284;20.890;2023-02-24T12:40:44;6.90;;;5.20;;
41141;SDS011;63666;52.284;20.890;2023-02-24T12:43:29;7.20;;;5.20;;
41141;SDS011;63666;52.284;20.890;2023-02-24T12:46:19;7.90;;;5.30;;
41141;SDS011;63666;52.284;20.890;2023-02-24T12:49:18;7.00;;;5.30;;
41141;SDS011;63666;52.284;20.890;2023-02-24T12:52:08;7.30;;;5.20;;
41141;SDS011;63666;52.284;20.890;2023-02-24T12:54:48;6.90;;;4.80;;
41141;SDS011;63666;52.284;20.890;2023-02-24T12:57:27;6.80;;;5.00;;
41141;SDS011;63666;52.284;20.890;2023-02-24T13:00:10;6.70;;;4.90;;
41141;SDS011;63666;52.284;20.890;2023-02-24T13:02:52;6.20;;;4.70;;
41141;SDS011;63666;52.284;20.890;2023-02-24T13:05:30;7.10;;;5.00;;
41141;SDS011;63666;52.284;20.890;2023-02-24T13:08:21;6.40;;;4.70;;
41141;SDS011;63666;52.284;20.890;2023-02-24T13:11:02;6.30;;;4.60;;
41141;SDS011;63666;52.284;20.890;2023-02-24T13:13:53;6.50;;;4.50;;
41141;SDS011;63666;52.284;20.890;2023-02-24T13:16:29;6.90;;;4.30;;
41141;SDS011;63666;52.284;20.890;2023-02-24T13:19:15;6.30;;;4.60;;
41141;SDS011;63666;52.284;20.890;2023-02-24T13:22:23;6.80;;;4.80;;
41141;SDS011;63666;52.284;20.890;2023-02-24T13:25:11;7.30;;;4.60;;
41141;SDS011;63666;52.284;20.890;2023-02-24T13:27:57;6.90;;;4.60;;
41141;SDS011;63666;52.284;20.890;2023-02-24T13:30:40;6.70;;;4.60;;
41141;SDS011;63666;52.284;20.890;2023-02-24T13:33:27;6.20;;;4.10;;
41141;SDS011;63666;52.284;20.890;2023-02-24T13:36:12;6.20;;;4.00;;
41141;SDS011;63666;52.284;20.890;2023-02-24T13:38:51;6.70;;;4.50;;
41141;SDS011;63666;52.284;20.890;2023-02-24T13:41:39;6.40;;;4.10;;
41141;SDS011;63666;52.284;20.890;2023-02-24T13:44:25;6.20;;;4.10;;
41141;SDS011;63666;52.284;20.890;2023-02-24T13:47:29;6.30;;;4.20;;
41141;SDS011;63666;52.284;20.890;2023-02-24T13:50:19;6.60;;;4.10;;
41141;SDS011;63666;52.284;20.890;2023-02-24T13:53:08;6.20;;;4.10;;
41141;SDS011;63666;52.284;20.890;2023-02-24T13:56:08;6.00;;;4.00;;
41141;SDS011;63666;52.284;20.890;2023-02-24T13:59:13;6.20;;;4.10;;
41141;SDS011;63666;52.284;20.890;2023-02-24T14:02:15;6.50;;;4.20;;
41141;SDS011;63666;52.284;20.890;2023-02-24T14:04:52;6.10;;;4.10;;
41141;SDS011;63666;52.284;20.890;2023-02-24T14:07:25;5.50;;;3.80;;
41141;SDS011;63666;52.284;20.890;2023-02-24T14:10:02;6.70;;;4.00;;
41141;SDS011;63666;52.284;20.890;2023-02-24T14:12:42;6.20;;;3.80;;
41141;SDS011;63666;52.284;20.890;2023-02-24T14:15:19;5.70;;;3.60;;
41141;SDS011;63666;52.284;20.890;2023-02-24T14:18:02;6.20;;;3.90;;
41141;SDS011;63666;52.284;20.890;2023-02-24T14:20:34;6.60;;;4.10;;
41141;SDS011;63666;52.284;20.890;2023-02-24T14:23:21;7.20;;;4.00;;
41141;SDS011;63666;52.284;20.890;2023-02-24T14:26:03;6.70;;;4.10;;
41141;SDS011;63666;52.284;20.890;2023-02-24T14:28:36;7.30;;;4.00;;
41141;SDS011;63666;52.284;20.890;2023-02-24T14:31:12;6.90;;;4.30;;
41141;SDS011;63666;52.284;20.890;2023-02-24T14:33:46;6.30;;;3.90;;
41141;SDS011;63666;52.284;20.890;2023-02-24T14:36:29;7.30;;;4.10;;
41141;SDS011;63666;52.284;20.890;2023-02-24T14:39:11;6.20;;;3.90;;
41141;SDS011;63666;52.284;20.890;2023-02-24T14:41:48;6.30;;;4.30;;
41141;SDS011;63666;52.284;20.890;2023-02-24T14:44:23;6.20;;;4.00;;
41141;SDS011;63666;52.284;20.890;2023-02-24T14:46:58;6.80;;;3.90;;
41141;SDS011;63666;52.284;20.890;2023-02-24T14:49:35;6.40;;;3.80;;
41141;SDS011;63666;52.284;20.890;2023-02-24T14:52:10;6.10;;;3.60;;
41141;SDS011;63666;52.284;20.890;2023-02-24T14:54:50;6.20;;;4.00;;
41141;SDS011;63666;52.284;20.890;2023-02-24T14:57:24;6.00;;;4.00;;
41141;SDS011;63666;52.284;20.890;2023-02-24T14:59:57;7.20;;;4.20;;
41141;SDS011;63666;52.284;20.890;2023-02-24T15:05:10;5.60;;;3.60;;
41141;SDS011;63666;52.284;20.890;2023-02-24T15:07:43;6.70;;;4.10;;
41141;SDS011;63666;52.284;20.890;2023-02-24T15:10:22;6.50;;;4.00;;
41141;SDS011;63666;52.284;20.890;2023-02-24T15:12:57;7.40;;;4.10;;
41141;SDS011;63666;52.284;20.890;2023-02-24T15:15:34;6.90;;;4.40;;
41141;SDS011;63666;52.284;20.890;2023-02-24T15:18:11;8.20;;;4.40;;
41141;SDS011;63666;52.284;20.890;2023-02-24T15:20:46;6.60;;;4.30;;
41141;SDS011;63666;52.284;20.890;2023-02-24T15:23:27;7.30;;;4.50;;
41141;SDS011;63666;52.284;20.890;2023-02-24T15:28:30;7.30;;;4.40;;
41141;SDS011;63666;52.284;20.890;2023-02-24T15:31:03;8.80;;;4.40;;
41141;SDS011;63666;52.284;20.890;2023-02-24T15:33:40;8.30;;;4.50;;
41141;SDS011;63666;52.284;20.890;2023-02-24T15:38:44;7.90;;;4.60;;
41141;SDS011;63666;52.284;20.890;2023-02-24T15:41:20;6.70;;;4.60;;
41141;SDS011;63666;52.284;20.890;2023-02-24T15:43:53;8.00;;;4.50;;
41141;SDS011;63666;52.284;20.890;2023-02-24T15:46:29;8.10;;;4.70;;